Time,TemperatureF,DewpointF,PressureIn,WindDirection,WindDirectionDegrees,WindSpeedMPH,WindSpeedGustMPH,Humidity,HourlyPrecipIn,Conditions,Clouds,dailyrainin,SolarRadiationWatts/m^2,SoftwareType,DateUTC
2013-02-21 00:21:00,44.0,41.0,-100.00,ESE,118,16.0,27.0,89,0.00,,,0.01,0.000000,,2013-02-21 10:21:00,
2013-02-21 00:31:00,44.0,41.0,-100.00,ESE,118,16.0,27.0,89,0.00,,,0.01,0.000000,,2013-02-21 10:31:00,
2013-02-21 00:41:00,44.0,41.0,-100.00,ESE,118,16.0,27.0,89,0.00,,,0.01,0.000000,,2013-02-21 10:41:00,
2013-02-21 00:51:00,44.0,41.0,-100.00,ESE,118,16.0,27.0,89,0.00,,,0.01,0.000000,,2013-02-21 10:51:00,
2013-02-21 01:21:00,44.0,39.0,-100.00,SE,125,13.0,21.0,83,0.00,,,0.00,0.000000,,2013-02-21 11:21:00,
2013-02-21 01:31:00,44.0,39.0,-100.00,SE,125,13.0,21.0,83,0.00,,,0.00,0.000000,,2013-02-21 11:31:00,
2013-02-21 01:41:00,44.0,39.0,-100.00,SE,125,13.0,21.0,83,0.00,,,0.00,0.000000,,2013-02-21 11:41:00,
2013-02-21 01:51:00,44.0,39.0,-100.00,SE,125,13.0,21.0,83,0.00,,,0.00,0.000000,,2013-02-21 11:51:00,
2013-02-21 02:21:00,44.0,40.0,-100.00,ESE,122,12.0,20.0,86,0.00,,,0.00,0.000000,,2013-02-21 12:21:00,
2013-02-21 02:32:00,44.0,40.0,-100.00,ESE,122,12.0,20.0,86,0.00,,,0.00,0.000000,,2013-02-21 12:32:00,
2013-02-21 02:42:00,44.0,40.0,-100.00,ESE,122,12.0,20.0,86,0.00,,,0.00,0.000000,,2013-02-21 12:42:00,
2013-02-21 02:52:00,44.0,40.0,-100.00,ESE,122,12.0,20.0,86,0.00,,,0.00,0.000000,,2013-02-21 12:52:00,
2013-02-21 03:22:00,45.0,41.0,-100.00,SE,129,10.0,19.0,85,0.00,,,0.00,0.000000,,2013-02-21 13:22:00,
2013-02-21 03:32:00,45.0,41.0,-100.00,SE,129,10.0,19.0,85,0.00,,,0.00,0.000000,,2013-02-21 13:32:00,
2013-02-21 03:41:00,45.0,41.0,-100.00,SE,129,10.0,19.0,85,0.00,,,0.00,0.000000,,2013-02-21 13:41:00,
2013-02-21 03:51:00,45.0,41.0,-100.00,SE,129,10.0,19.0,85,0.00,,,0.00,0.000000,,2013-02-21 13:51:00,
2013-02-21 04:21:00,44.0,40.0,-100.00,SE,134,11.0,18.0,85,0.00,,,0.00,0.000000,,2013-02-21 14:21:00,
2013-02-21 04:32:00,44.0,40.0,-100.00,SE,134,11.0,18.0,85,0.00,,,0.00,0.000000,,2013-02-21 14:32:00,
2013-02-21 04:41:00,44.0,40.0,-100.00,SE,134,11.0,18.0,85,0.00,,,0.00,0.000000,,2013-02-21 14:41:00,
2013-02-21 04:52:00,44.0,40.0,-100.00,SE,134,11.0,18.0,85,0.00,,,0.00,0.000000,,2013-02-21 14:52:00,
2013-02-21 05:21:00,43.0,38.0,-100.00,ESE,123,11.0,16.0,82,0.00,,,0.00,0.000000,,2013-02-21 15:21:00,
2013-02-21 05:31:00,43.0,38.0,-100.00,ESE,123,11.0,16.0,82,0.00,,,0.00,0.000000,,2013-02-21 15:31:00,
2013-02-21 05:42:00,43.0,38.0,-100.00,ESE,123,11.0,16.0,82,0.00,,,0.00,0.000000,,2013-02-21 15:42:00,
2013-02-21 05:51:00,43.0,38.0,-100.00,ESE,123,11.0,16.0,82,0.00,,,0.00,0.000000,,2013-02-21 15:51:00,
2013-02-21 06:21:00,43.0,39.0,-100.00,ESE,123,11.0,16.0,85,0.00,,,0.00,0.000000,,2013-02-21 16:21:00,
2013-02-21 06:31:00,43.0,39.0,-100.00,ESE,123,11.0,16.0,85,0.00,,,0.00,0.000000,,2013-02-21 16:31:00,
2013-02-21 06:42:00,43.0,39.0,-100.00,ESE,123,11.0,16.0,85,0.00,,,0.00,0.000000,,2013-02-21 16:42:00,
2013-02-21 06:51:00,43.0,39.0,-100.00,ESE,123,11.0,16.0,85,0.00,,,0.00,0.000000,,2013-02-21 16:51:00,
2013-02-21 07:21:00,43.0,41.0,-100.00,SE,124,9.0,16.0,92,0.00,,,0.00,2.000000,,2013-02-21 17:21:00,
2013-02-21 07:32:00,43.0,41.0,-100.00,SE,124,9.0,16.0,92,0.00,,,0.00,2.000000,,2013-02-21 17:32:00,
2013-02-21 07:42:00,43.0,41.0,-100.00,SE,124,9.0,16.0,92,0.00,,,0.00,2.000000,,2013-02-21 17:42:00,
2013-02-21 07:52:00,43.0,41.0,-100.00,SE,124,9.0,16.0,92,0.00,,,0.00,2.000000,,2013-02-21 17:52:00,
2013-02-21 08:22:00,49.0,46.0,-100.00,SE,125,13.0,20.0,89,0.00,,,0.00,128.000000,,2013-02-21 18:22:00,
2013-02-21 08:31:00,49.0,46.0,-100.00,SE,125,13.0,20.0,89,0.00,,,0.00,128.000000,,2013-02-21 18:31:00,
2013-02-21 08:42:00,49.0,46.0,-100.00,SE,125,13.0,20.0,89,0.00,,,0.00,128.000000,,2013-02-21 18:42:00,
2013-02-21 08:51:00,49.0,46.0,-100.00,SE,125,13.0,20.0,89,0.00,,,0.00,128.000000,,2013-02-21 18:51:00,
2013-02-21 09:21:00,50.0,46.0,-100.00,East,100,16.0,24.0,87,0.00,,,0.00,484.000000,,2013-02-21 19:21:00,
2013-02-21 09:31:00,50.0,46.0,-100.00,East,100,16.0,24.0,87,0.00,,,0.00,484.000000,,2013-02-21 19:31:00,
2013-02-21 09:41:00,50.0,46.0,-100.00,East,100,16.0,24.0,87,0.00,,,0.00,484.000000,,2013-02-21 19:41:00,
2013-02-21 09:51:00,50.0,46.0,-100.00,East,100,16.0,24.0,87,0.00,,,0.00,484.000000,,2013-02-21 19:51:00,
2013-02-21 10:21:00,52.0,47.0,-100.00,ESE,104,20.0,29.0,82,0.00,,,0.00,770.000000,,2013-02-21 20:21:00,
2013-02-21 10:31:00,52.0,47.0,-100.00,ESE,104,20.0,29.0,82,0.00,,,0.00,770.000000,,2013-02-21 20:31:00,
2013-02-21 10:41:00,52.0,47.0,-100.00,ESE,104,20.0,29.0,82,0.00,,,0.00,770.000000,,2013-02-21 20:41:00,
2013-02-21 10:52:00,52.0,47.0,-100.00,ESE,104,20.0,29.0,82,0.00,,,0.00,770.000000,,2013-02-21 20:52:00,
2013-02-21 11:21:00,56.0,45.0,-100.00,East,93,21.0,34.0,66,0.00,,,0.00,969.000000,,2013-02-21 21:21:00,
2013-02-21 11:31:00,56.0,45.0,-100.00,East,93,21.0,34.0,66,0.00,,,0.00,969.000000,,2013-02-21 21:31:00,
2013-02-21 11:42:00,56.0,45.0,-100.00,East,93,21.0,34.0,66,0.00,,,0.00,969.000000,,2013-02-21 21:42:00,
2013-02-21 11:51:00,56.0,45.0,-100.00,East,93,21.0,34.0,66,0.00,,,0.00,969.000000,,2013-02-21 21:51:00,
2013-02-21 12:21:00,58.0,42.0,-100.00,East,90,20.0,33.0,55,0.00,,,0.00,1165.000000,,2013-02-21 22:21:00,
2013-02-21 12:31:00,58.0,42.0,-100.00,East,90,20.0,33.0,55,0.00,,,0.00,1165.000000,,2013-02-21 22:31:00,
2013-02-21 12:41:00,58.0,42.0,-100.00,East,90,20.0,33.0,55,0.00,,,0.00,1165.000000,,2013-02-21 22:41:00,
2013-02-21 12:52:00,58.0,42.0,-100.00,East,90,20.0,33.0,55,0.00,,,0.00,1165.000000,,2013-02-21 22:52:00,
2013-02-21 13:21:00,60.0,43.0,-100.00,East,96,19.0,30.0,53,0.00,,,0.00,1231.000000,,2013-02-21 23:21:00,
2013-02-21 13:31:00,60.0,43.0,-100.00,East,96,19.0,30.0,53,0.00,,,0.00,1231.000000,,2013-02-21 23:31:00,
2013-02-21 13:41:00,60.0,43.0,-100.00,East,96,19.0,30.0,53,0.00,,,0.00,1231.000000,,2013-02-21 23:41:00,
2013-02-21 13:52:00,60.0,43.0,-100.00,East,96,19.0,30.0,53,0.00,,,0.00,1231.000000,,2013-02-21 23:52:00,
2013-02-21 14:21:00,62.0,45.0,-100.00,East,92,14.0,29.0,54,0.00,,,0.00,1069.000000,,2013-02-22 00:21:00,
2013-02-21 14:31:00,62.0,45.0,-100.00,East,92,14.0,29.0,54,0.00,,,0.00,1069.000000,,2013-02-22 00:31:00,
2013-02-21 14:41:00,62.0,45.0,-100.00,East,92,14.0,29.0,54,0.00,,,0.00,1069.000000,,2013-02-22 00:41:00,
2013-02-21 14:51:00,62.0,45.0,-100.00,East,92,14.0,29.0,54,0.00,,,0.00,1069.000000,,2013-02-22 00:51:00,
2013-02-21 15:21:00,61.0,47.0,-100.00,East,98,13.0,23.0,59,0.00,,,-99.99,827.000000,,2013-02-22 01:21:00,
2013-02-21 15:32:00,61.0,47.0,-100.00,East,98,13.0,23.0,59,0.00,,,-99.99,827.000000,,2013-02-22 01:32:00,
2013-02-21 15:42:00,61.0,47.0,-100.00,East,98,13.0,23.0,59,0.00,,,-99.99,827.000000,,2013-02-22 01:42:00,
2013-02-21 15:51:00,61.0,47.0,-100.00,East,98,13.0,23.0,59,0.00,,,-99.99,827.000000,,2013-02-22 01:51:00,
2013-02-21 16:21:00,57.0,48.0,-100.00,East,92,18.0,26.0,72,0.00,,,0.00,338.000000,,2013-02-22 02:21:00,
2013-02-21 16:31:00,57.0,48.0,-100.00,East,92,18.0,26.0,72,0.00,,,0.00,338.000000,,2013-02-22 02:31:00,
2013-02-21 16:42:00,57.0,48.0,-100.00,East,92,18.0,26.0,72,0.00,,,0.00,338.000000,,2013-02-22 02:42:00,
2013-02-21 16:52:00,57.0,48.0,-100.00,East,92,18.0,26.0,72,0.00,,,0.00,338.000000,,2013-02-22 02:52:00,
2013-02-21 17:21:00,56.0,48.0,-100.00,East,94,15.0,24.0,74,0.00,,,0.00,197.000000,,2013-02-22 03:21:00,
2013-02-21 17:31:00,56.0,48.0,-100.00,East,94,15.0,24.0,74,0.00,,,0.00,197.000000,,2013-02-22 03:31:00,
2013-02-21 17:41:00,56.0,48.0,-100.00,East,94,15.0,24.0,74,0.00,,,0.00,197.000000,,2013-02-22 03:41:00,
2013-02-21 17:51:00,56.0,48.0,-100.00,East,94,15.0,24.0,74,0.00,,,0.00,197.000000,,2013-02-22 03:51:00,
2013-02-21 18:11:00,52.0,46.0,-100.00,East,100,14.0,21.0,81,0.00,,,0.00,93.000000,,2013-02-22 04:11:00,
2013-02-21 18:21:00,52.0,46.0,-100.00,East,100,14.0,21.0,81,0.00,,,0.00,93.000000,,2013-02-22 04:21:00,
2013-02-21 18:32:00,52.0,46.0,-100.00,East,100,14.0,21.0,81,0.00,,,0.00,93.000000,,2013-02-22 04:32:00,
2013-02-21 18:42:00,52.0,46.0,-100.00,East,100,14.0,21.0,81,0.00,,,0.00,93.000000,,2013-02-22 04:42:00,
2013-02-21 18:51:00,52.0,46.0,-100.00,East,100,14.0,21.0,81,0.00,,,0.00,93.000000,,2013-02-22 04:51:00,
2013-02-21 19:22:00,49.0,46.0,-100.00,ESE,109,15.0,24.0,91,0.04,,,0.04,4.000000,,2013-02-22 05:22:00,
2013-02-21 19:32:00,49.0,46.0,-100.00,ESE,109,15.0,24.0,91,0.04,,,0.04,4.000000,,2013-02-22 05:32:00,
2013-02-21 19:41:00,49.0,46.0,-100.00,ESE,109,15.0,24.0,91,0.04,,,0.04,4.000000,,2013-02-22 05:41:00,
2013-02-21 19:52:00,49.0,46.0,-100.00,ESE,109,15.0,24.0,91,0.04,,,0.04,4.000000,,2013-02-22 05:52:00,
2013-02-21 20:21:00,49.0,48.0,-100.00,ESE,102,12.0,22.0,95,0.06,,,0.10,0.000000,,2013-02-22 06:21:00,
2013-02-21 20:31:00,49.0,48.0,-100.00,ESE,102,12.0,22.0,95,0.06,,,0.10,0.000000,,2013-02-22 06:31:00,
2013-02-21 20:42:00,49.0,48.0,-100.00,ESE,102,12.0,22.0,95,0.06,,,0.10,0.000000,,2013-02-22 06:42:00,
2013-02-21 20:51:00,49.0,48.0,-100.00,ESE,102,12.0,22.0,95,0.06,,,0.10,0.000000,,2013-02-22 06:51:00,
2013-02-21 21:21:00,48.0,47.0,-100.00,ESE,105,19.0,32.0,95,0.03,,,0.13,0.000000,,2013-02-22 07:21:00,
2013-02-21 21:31:00,48.0,47.0,-100.00,ESE,105,19.0,32.0,95,0.03,,,0.13,0.000000,,2013-02-22 07:31:00,
2013-02-21 21:42:00,48.0,47.0,-100.00,ESE,105,19.0,32.0,95,0.03,,,0.13,0.000000,,2013-02-22 07:42:00,
2013-02-21 21:51:00,48.0,47.0,-100.00,ESE,105,19.0,32.0,95,0.03,,,0.13,0.000000,,2013-02-22 07:51:00,
2013-02-21 22:21:00,48.0,46.0,-100.00,ESE,104,17.0,31.0,94,0.00,,,0.13,0.000000,,2013-02-22 08:21:00,
2013-02-21 22:31:00,48.0,46.0,-100.00,ESE,104,17.0,31.0,94,0.00,,,0.13,0.000000,,2013-02-22 08:31:00,
2013-02-21 22:41:00,48.0,46.0,-100.00,ESE,104,17.0,31.0,94,0.00,,,0.13,0.000000,,2013-02-22 08:41:00,
2013-02-21 22:52:00,48.0,46.0,-100.00,ESE,104,17.0,31.0,94,0.00,,,0.13,0.000000,,2013-02-22 08:52:00,
2013-02-21 23:21:00,49.0,47.0,-100.00,ESE,103,15.0,27.0,94,0.01,,,0.14,0.000000,,2013-02-22 09:21:00,
2013-02-21 23:31:00,49.0,47.0,-100.00,ESE,103,15.0,27.0,94,0.01,,,0.14,0.000000,,2013-02-22 09:31:00,
2013-02-21 23:41:00,49.0,47.0,-100.00,ESE,103,15.0,27.0,94,0.01,,,0.14,0.000000,,2013-02-22 09:41:00,
2013-02-21 23:51:00,49.0,47.0,-100.00,ESE,103,15.0,27.0,94,0.01,,,0.14,0.000000,,2013-02-22 09:51:00,